Time;durP1;ratioP1;P1;durP2;ratioP2;P2;SDS_P1;SDS_P2;PMS_P1;PMS_P2;Temp;Humidity;BMP_temperature;BMP_pressure;BME280_temperature;BME280_humidity;BME280_pressure;Samples;Min_cycle;Max_cycle;Signal;HPM_P1;HPM_P2
2021/07/24 00:00:28;;;;;;;43.33;17.52;;;;;;;;;;5035395;28;20480;-60
2021/07/24 00:02:54;;;;;;;40.08;17.23;;;;;;;;;;5036511;28;20029;-60
2021/07/24 00:05:20;;;;;;;37.78;17.88;;;;;;;;;;5033421;28;20033;-60
2021/07/24 00:07:45;;;;;;;42.10;18.10;;;;;;;;;;5039628;28;20029;-61
2021/07/24 00:10:11;;;;;;;36.55;16.90;;;;;;;;;;5037182;28;20040;-60
2021/07/24 00:12:36;;;;;;;40.15;17.40;;;;;;;;;;5038228;28;20402;-60
2021/07/24 00:15:02;;;;;;;36.85;17.27;;;;;;;;;;5041939;28;20542;-60
2021/07/24 00:17:27;;;;;;;39.47;17.38;;;;;;;;;;5044804;28;20045;-60
2021/07/24 00:19:52;;;;;;;41.40;17.33;;;;;;;;;;5038881;28;20103;-60
2021/07/24 00:22:18;;;;;;;36.40;16.55;;;;;;;;;;5044164;28;20439;-60
2021/07/24 00:24:43;;;;;;;37.83;16.70;;;;;;;;;;5027242;28;20107;-60
2021/07/24 00:27:09;;;;;;;39.53;16.92;;;;;;;;;;5038287;28;20029;-60
2021/07/24 00:29:38;;;;;;;37.00;15.25;;;;;;;;;;5046841;28;20035;-60
2021/07/24 00:32:04;;;;;;;35.65;15.50;;;;;;;;;;5044264;28;20104;-60
2021/07/24 00:34:30;;;;;;;35.65;16.77;;;;;;;;;;5042500;28;20091;-60
2021/07/24 00:36:57;;;;;;;36.50;14.73;;;;;;;;;;5037191;28;20030;-61
2021/07/24 00:39:23;;;;;;;40.63;15.98;;;;;;;;;;5042674;28;20061;-60
2021/07/24 00:41:52;;;;;;;31.52;15.88;;;;;;;;;;5042075;28;20053;-60
2021/07/24 00:44:20;;;;;;;33.85;15.80;;;;;;;;;;5044192;28;20434;-60
2021/07/24 00:46:48;;;;;;;34.17;15.77;;;;;;;;;;5044751;28;20087;-60
2021/07/24 00:49:15;;;;;;;33.05;14.90;;;;;;;;;;5037372;28;20037;-60
2021/07/24 00:51:47;;;;;;;34.67;14.80;;;;;;;;;;5035349;28;20029;-61
2021/07/24 00:54:12;;;;;;;35.83;15.18;;;;;;;;;;5040014;28;20041;-60
2021/07/24 00:56:43;;;;;;;28.25;14.25;;;;;;;;;;5043179;28;20025;-60
2021/07/24 00:59:08;;;;;;;28.35;13.90;;;;;;;;;;5038535;28;20060;-59
2021/07/24 01:01:36;;;;;;;28.92;13.60;;;;;;;;;;5044120;28;20075;-60
2021/07/24 01:04:02;;;;;;;26.80;13.82;;;;;;;;;;5043737;28;20036;-60
2021/07/24 01:06:28;;;;;;;26.35;12.57;;;;;;;;;;5039668;28;20028;-60
2021/07/24 01:08:53;;;;;;;36.35;13.32;;;;;;;;;;5044616;28;20037;-60
2021/07/24 01:11:19;;;;;;;29.75;13.68;;;;;;;;;;5037101;28;20037;-60
2021/07/24 01:13:45;;;;;;;24.30;13.38;;;;;;;;;;5038168;28;20029;-60
2021/07/24 01:16:12;;;;;;;39.28;14.40;;;;;;;;;;5044822;28;20047;-60
2021/07/24 01:18:38;;;;;;;25.95;13.40;;;;;;;;;;5039514;28;20487;-60
2021/07/24 01:21:08;;;;;;;32.03;13.45;;;;;;;;;;5040533;28;20082;-60
2021/07/24 01:23:35;;;;;;;23.13;12.38;;;;;;;;;;5038308;28;20086;-60
2021/07/24 01:26:00;;;;;;;27.83;12.82;;;;;;;;;;5045225;28;20055;-60
2021/07/24 01:28:31;;;;;;;24.60;13.00;;;;;;;;;;5040310;28;20056;-60
2021/07/24 01:30:59;;;;;;;27.70;13.13;;;;;;;;;;5034677;28;20025;-60
2021/07/24 01:33:24;;;;;;;21.60;11.98;;;;;;;;;;5038249;28;20037;-60
2021/07/24 01:35:51;;;;;;;27.42;13.02;;;;;;;;;;5040376;28;20025;-60
2021/07/24 01:38:18;;;;;;;34.58;13.80;;;;;;;;;;5041518;28;20033;-61
2021/07/24 01:40:44;;;;;;;33.15;13.73;;;;;;;;;;5039740;28;20495;-59
2021/07/24 01:43:10;;;;;;;27.33;13.75;;;;;;;;;;5036825;28;20030;-60
2021/07/24 01:45:37;;;;;;;30.70;13.95;;;;;;;;;;5036594;28;20157;-59
2021/07/24 01:48:07;;;;;;;27.40;13.45;;;;;;;;;;5042274;28;20029;-60
2021/07/24 01:53:18;;;;;;;29.83;13.30;;;;;;;;;;5039869;28;20028;-59
2021/07/24 01:55:53;;;;;;;24.10;13.55;;;;;;;;;;5046280;28;20032;-60
2021/07/24 01:58:28;;;;;;;29.27;13.93;;;;;;;;;;5046902;28;20048;-60
2021/07/24 02:00:55;;;;;;;24.55;13.95;;;;;;;;;;5035959;28;20074;-60
2021/07/24 02:03:24;;;;;;;30.92;13.50;;;;;;;;;;5040608;28;20340;-61
2021/07/24 02:05:49;;;;;;;30.58;13.60;;;;;;;;;;5048256;28;20525;-59
2021/07/24 02:08:23;;;;;;;26.60;13.45;;;;;;;;;;5042004;28;20029;-60
2021/07/24 02:10:50;;;;;;;32.35;13.68;;;;;;;;;;5047621;28;20033;-60
2021/07/24 02:13:17;;;;;;;26.52;14.00;;;;;;;;;;5044064;28;20032;-60
2021/07/24 02:15:43;;;;;;;28.23;12.02;;;;;;;;;;5039457;28;20035;-60
2021/07/24 02:18:10;;;;;;;32.97;14.00;;;;;;;;;;5040260;28;20053;-60
2021/07/24 02:20:36;;;;;;;30.08;12.85;;;;;;;;;;5044756;28;20056;-60
2021/07/24 02:23:02;;;;;;;22.25;12.77;;;;;;;;;;5046467;28;20418;-60
2021/07/24 02:25:28;;;;;;;23.70;12.57;;;;;;;;;;5035618;28;20025;-60
2021/07/24 02:27:54;;;;;;;23.00;11.75;;;;;;;;;;5043684;28;20025;-60
2021/07/24 02:30:19;;;;;;;22.92;12.05;;;;;;;;;;5039938;28;20045;-60
2021/07/24 02:32:45;;;;;;;25.67;11.45;;;;;;;;;;5044496;28;20444;-60
2021/07/24 02:35:11;;;;;;;23.65;11.02;;;;;;;;;;5046605;28;20396;-60
2021/07/24 02:37:37;;;;;;;20.98;10.00;;;;;;;;;;5044120;28;20033;-60
2021/07/24 02:40:03;;;;;;;26.48;10.50;;;;;;;;;;5042770;28;20043;-60
2021/07/24 02:42:29;;;;;;;22.60;9.95;;;;;;;;;;5037768;28;20026;-59
2021/07/24 02:44:55;;;;;;;24.50;10.60;;;;;;;;;;5035497;28;20032;-60
2021/07/24 02:47:20;;;;;;;23.77;9.65;;;;;;;;;;5045201;28;20116;-60
2021/07/24 02:49:46;;;;;;;21.73;9.60;;;;;;;;;;5036721;28;20041;-60
2021/07/24 02:52:11;;;;;;;29.50;10.27;;;;;;;;;;5037677;28;20021;-60
2021/07/24 02:54:37;;;;;;;17.40;9.50;;;;;;;;;;5046859;28;20029;-60
2021/07/24 02:57:03;;;;;;;22.27;9.15;;;;;;;;;;5039010;28;20037;-60
2021/07/24 02:59:29;;;;;;;27.05;9.90;;;;;;;;;;5041210;28;20104;-60
2021/07/24 03:01:55;;;;;;;19.60;10.07;;;;;;;;;;5039682;28;20131;-60
2021/07/24 03:04:20;;;;;;;28.42;10.65;;;;;;;;;;5039383;28;20029;-60
2021/07/24 03:06:46;;;;;;;26.40;10.32;;;;;;;;;;5039124;28;20021;-60
2021/07/24 03:09:11;;;;;;;24.63;11.65;;;;;;;;;;5040258;28;20040;-60
2021/07/24 03:11:37;;;;;;;26.80;10.13;;;;;;;;;;5037796;28;20082;-61
2021/07/24 03:14:03;;;;;;;46.42;11.80;;;;;;;;;;5042131;28;20424;-60
2021/07/24 03:16:29;;;;;;;32.83;11.13;;;;;;;;;;5046946;28;20056;-61
2021/07/24 03:18:56;;;;;;;24.33;10.70;;;;;;;;;;5039955;28;20230;-61
2021/07/24 03:21:22;;;;;;;21.95;10.85;;;;;;;;;;5039788;28;20033;-60
2021/07/24 03:23:47;;;;;;;22.33;9.23;;;;;;;;;;5039386;28;20411;-60
2021/07/24 03:26:13;;;;;;;23.10;10.07;;;;;;;;;;5047045;28;20021;-61
2021/07/24 03:28:38;;;;;;;22.20;9.75;;;;;;;;;;5036970;28;20539;-60
2021/07/24 03:31:04;;;;;;;23.35;9.82;;;;;;;;;;5040921;28;20572;-60
2021/07/24 03:33:30;;;;;;;28.52;10.68;;;;;;;;;;5037420;28;20479;-61
2021/07/24 03:35:55;;;;;;;20.75;9.35;;;;;;;;;;5044261;28;20057;-59
2021/07/24 03:38:21;;;;;;;20.02;9.85;;;;;;;;;;5040903;28;20104;-60
2021/07/24 03:40:47;;;;;;;25.25;9.88;;;;;;;;;;5039568;28;20029;-59
2021/07/24 03:43:14;;;;;;;27.80;9.95;;;;;;;;;;5035952;28;20040;-60
2021/07/24 03:45:39;;;;;;;32.15;10.20;;;;;;;;;;5040971;28;20165;-60
2021/07/24 03:48:05;;;;;;;25.08;9.93;;;;;;;;;;5037267;28;20044;-60
2021/07/24 03:50:31;;;;;;;22.60;9.93;;;;;;;;;;5038413;28;20072;-60
2021/07/24 03:52:56;;;;;;;23.65;9.88;;;;;;;;;;5035736;28;20032;-61
2021/07/24 03:55:23;;;;;;;28.95;10.13;;;;;;;;;;5036729;28;20037;-61
2021/07/24 03:57:50;;;;;;;18.30;9.63;;;;;;;;;;5037457;28;20095;-61
2021/07/24 04:00:16;;;;;;;30.65;11.43;;;;;;;;;;5041491;28;20108;-60
2021/07/24 04:02:43;;;;;;;25.45;10.38;;;;;;;;;;5036241;28;20112;-60
2021/07/24 04:05:09;;;;;;;31.13;10.88;;;;;;;;;;5048255;28;20029;-60
2021/07/24 04:07:35;;;;;;;30.30;10.43;;;;;;;;;;5035490;28;20033;-60
2021/07/24 04:10:01;;;;;;;25.45;10.38;;;;;;;;;;5035488;28;20083;-60
2021/07/24 04:12:27;;;;;;;23.42;10.23;;;;;;;;;;5040885;28;20029;-60
2021/07/24 04:14:53;;;;;;;19.10;9.88;;;;;;;;;;5045587;28;20033;-60
2021/07/24 04:17:19;;;;;;;26.88;9.63;;;;;;;;;;5041026;28;20049;-61
2021/07/24 04:19:44;;;;;;;25.08;10.00;;;;;;;;;;5040287;28;20044;-61
2021/07/24 04:22:10;;;;;;;23.52;9.73;;;;;;;;;;5035112;28;20026;-61
2021/07/24 04:24:35;;;;;;;27.02;9.93;;;;;;;;;;5040214;28;20087;-60
2021/07/24 04:27:01;;;;;;;21.05;9.65;;;;;;;;;;5040971;28;20476;-60
2021/07/24 04:29:26;;;;;;;24.98;9.13;;;;;;;;;;5042544;28;20485;-60
2021/07/24 04:31:54;;;;;;;26.77;9.48;;;;;;;;;;5040971;28;20036;-60
2021/07/24 04:34:19;;;;;;;25.17;9.75;;;;;;;;;;5067117;23;20064;-78
2021/07/24 04:36:45;;;;;;;28.70;10.57;;;;;;;;;;5009436;28;20030;-78
2021/07/24 04:39:10;;;;;;;28.58;10.93;;;;;;;;;;5013649;28;20028;-76
2021/07/24 04:41:36;;;;;;;31.13;11.73;;;;;;;;;;5015958;28;20068;-78
2021/07/24 04:44:01;;;;;;;28.30;12.65;;;;;;;;;;5010457;28;20034;-77
2021/07/24 04:46:29;;;;;;;25.90;12.43;;;;;;;;;;5004677;28;20625;-76
2021/07/24 04:48:54;;;;;;;30.10;11.65;;;;;;;;;;4999345;28;20049;-77
2021/07/24 04:51:21;;;;;;;33.88;13.50;;;;;;;;;;5004055;28;20033;-77
2021/07/24 04:53:48;;;;;;;33.70;14.25;;;;;;;;;;5001218;28;20105;-76
2021/07/24 04:56:14;;;;;;;31.67;14.15;;;;;;;;;;5008615;28;20022;-77
2021/07/24 04:58:40;;;;;;;31.42;13.80;;;;;;;;;;4989075;28;20057;-77
2021/07/24 05:01:05;;;;;;;26.67;14.18;;;;;;;;;;4976644;28;20069;-76
2021/07/24 05:03:32;;;;;;;32.80;13.05;;;;;;;;;;4995626;28;20026;-77
2021/07/24 05:05:59;;;;;;;27.48;12.68;;;;;;;;;;4995537;28;20022;-77
2021/07/24 05:08:25;;;;;;;29.52;13.90;;;;;;;;;;5006496;28;20380;-76
2021/07/24 05:10:51;;;;;;;27.10;11.77;;;;;;;;;;4971769;28;20023;-78
2021/07/24 05:13:16;;;;;;;31.95;13.48;;;;;;;;;;4994348;28;20030;-77
2021/07/24 05:15:42;;;;;;;26.88;13.20;;;;;;;;;;4988179;28;20030;-77
2021/07/24 05:18:08;;;;;;;30.23;12.93;;;;;;;;;;4973739;28;20125;-77
2021/07/24 05:20:34;;;;;;;32.35;13.70;;;;;;;;;;4974071;28;20048;-76
2021/07/24 05:22:59;;;;;;;33.03;13.63;;;;;;;;;;4992754;28;20489;-78
2021/07/24 05:25:25;;;;;;;26.10;13.05;;;;;;;;;;5004122;28;20041;-77
2021/07/24 05:27:50;;;;;;;29.27;12.05;;;;;;;;;;4999305;28;20031;-77
2021/07/24 05:30:16;;;;;;;24.98;11.73;;;;;;;;;;4978552;28;20386;-77
2021/07/24 05:32:42;;;;;;;24.80;11.45;;;;;;;;;;4996670;28;20033;-76
2021/07/24 05:35:08;;;;;;;20.90;10.27;;;;;;;;;;5002181;28;20052;-77
2021/07/24 05:37:34;;;;;;;20.08;9.93;;;;;;;;;;4998083;28;20030;-77
2021/07/24 05:39:59;;;;;;;27.98;10.18;;;;;;;;;;4999783;28;20532;-77
2021/07/24 05:42:29;;;;;;;30.70;9.18;;;;;;;;;;4973768;28;20042;-76
2021/07/24 05:44:55;;;;;;;20.85;8.20;;;;;;;;;;5011411;28;20045;-77
2021/07/24 05:47:20;;;;;;;15.32;7.40;;;;;;;;;;4987238;28;20543;-78
2021/07/24 05:49:46;;;;;;;18.17;7.22;;;;;;;;;;4994959;28;20101;-77
2021/07/24 05:52:12;;;;;;;18.25;6.95;;;;;;;;;;5000683;28;20401;-78
2021/07/24 05:54:38;;;;;;;20.30;7.43;;;;;;;;;;4997958;28;20029;-77
2021/07/24 05:57:07;;;;;;;13.80;6.25;;;;;;;;;;5002883;28;20042;-76
2021/07/24 05:59:36;;;;;;;17.35;7.05;;;;;;;;;;4998031;28;20032;-78
2021/07/24 06:02:05;;;;;;;18.17;6.55;;;;;;;;;;4959606;28;20454;-77
2021/07/24 06:04:31;;;;;;;15.35;6.30;;;;;;;;;;4994462;28;20474;-83
2021/07/24 06:06:57;;;;;;;18.20;5.72;;;;;;;;;;5009836;28;20129;-84
2021/07/24 06:09:22;;;;;;;12.77;5.25;;;;;;;;;;4981971;28;20117;-83
2021/07/24 06:11:48;;;;;;;11.75;5.00;;;;;;;;;;4999283;28;20030;-85
2021/07/24 06:14:13;;;;;;;15.32;5.47;;;;;;;;;;4991371;28;20041;-83
2021/07/24 06:16:39;;;;;;;18.92;5.43;;;;;;;;;;4991943;28;20027;-83
2021/07/24 06:19:04;;;;;;;12.95;5.45;;;;;;;;;;4978277;28;20117;-82
2021/07/24 06:21:30;;;;;;;19.63;5.47;;;;;;;;;;4995767;28;20556;-83
2021/07/24 06:23:56;;;;;;;11.80;5.40;;;;;;;;;;5001010;28;20556;-84
2021/07/24 06:26:21;;;;;;;13.85;6.15;;;;;;;;;;4999259;28;20074;-84
2021/07/24 06:28:47;;;;;;;15.40;6.13;;;;;;;;;;4995804;28;20100;-83
2021/07/24 06:31:12;;;;;;;11.30;5.03;;;;;;;;;;4986307;28;20445;-82
2021/07/24 06:33:38;;;;;;;15.38;4.97;;;;;;;;;;4997088;28;20025;-77
2021/07/24 06:36:04;;;;;;;12.50;5.00;;;;;;;;;;4999231;28;20058;-77
2021/07/24 06:38:29;;;;;;;10.65;4.78;;;;;;;;;;4999466;28;20697;-76
2021/07/24 06:40:56;;;;;;;14.43;5.13;;;;;;;;;;4999803;28;20061;-77
2021/07/24 06:43:21;;;;;;;12.40;4.70;;;;;;;;;;4998225;28;20022;-77
2021/07/24 06:45:48;;;;;;;12.80;4.97;;;;;;;;;;5004269;28;20439;-77
2021/07/24 06:48:13;;;;;;;13.00;4.22;;;;;;;;;;4997770;28;20030;-75
2021/07/24 06:50:39;;;;;;;12.25;4.88;;;;;;;;;;4982222;28;20034;-75
2021/07/24 06:53:05;;;;;;;11.65;4.82;;;;;;;;;;4994729;28;20382;-76
2021/07/24 06:55:30;;;;;;;13.65;5.10;;;;;;;;;;4991407;28;20085;-76
2021/07/24 06:58:03;;;;;;;13.10;5.25;;;;;;;;;;4996268;28;20026;-75
2021/07/24 07:00:32;;;;;;;12.63;4.35;;;;;;;;;;4992870;28;20436;-75
2021/07/24 07:03:01;;;;;;;8.48;4.82;;;;;;;;;;5000176;28;20033;-77
2021/07/24 07:05:28;;;;;;;12.23;5.07;;;;;;;;;;4996960;28;20400;-75
2021/07/24 07:07:54;;;;;;;12.93;5.70;;;;;;;;;;4995242;28;20032;-76
2021/07/24 07:10:20;;;;;;;10.75;5.30;;;;;;;;;;4991430;28;20030;-75
2021/07/24 07:12:46;;;;;;;16.00;6.53;;;;;;;;;;4994406;28;20510;-75
2021/07/24 07:15:12;;;;;;;15.48;5.82;;;;;;;;;;4997721;28;20054;-77
2021/07/24 07:17:37;;;;;;;18.15;6.57;;;;;;;;;;4999412;28;20062;-75
2021/07/24 07:20:07;;;;;;;16.10;6.50;;;;;;;;;;4997754;28;20058;-75
2021/07/24 07:22:32;;;;;;;12.82;5.65;;;;;;;;;;4994905;28;20037;-77
2021/07/24 07:24:58;;;;;;;10.23;5.75;;;;;;;;;;4997757;28;20033;-75
2021/07/24 07:27:23;;;;;;;19.40;6.40;;;;;;;;;;5000676;28;20451;-75
2021/07/24 07:29:49;;;;;;;18.50;6.15;;;;;;;;;;4993591;28;20038;-75
2021/07/24 07:32:14;;;;;;;10.93;5.70;;;;;;;;;;5000117;28;20490;-75
2021/07/24 07:34:40;;;;;;;16.10;6.22;;;;;;;;;;4996422;28;20405;-75
2021/07/24 07:37:06;;;;;;;12.20;5.50;;;;;;;;;;4995135;28;20046;-75
2021/07/24 07:39:32;;;;;;;11.07;5.13;;;;;;;;;;4992499;28;20038;-75
2021/07/24 07:41:57;;;;;;;11.00;4.95;;;;;;;;;;4994169;28;20436;-75
2021/07/24 07:44:24;;;;;;;10.13;5.10;;;;;;;;;;4998055;28;20168;-75
2021/07/24 07:46:50;;;;;;;12.23;4.90;;;;;;;;;;4997011;28;20378;-75
2021/07/24 07:49:16;;;;;;;11.05;5.30;;;;;;;;;;4993844;28;20025;-75
2021/07/24 07:51:41;;;;;;;10.73;4.80;;;;;;;;;;5000431;28;20033;-74
2021/07/24 07:54:07;;;;;;;13.68;4.63;;;;;;;;;;4994773;28;20050;-76
2021/07/24 07:56:32;;;;;;;11.65;5.30;;;;;;;;;;5000478;28;20084;-76
2021/07/24 07:58:58;;;;;;;10.10;4.50;;;;;;;;;;4981185;28;20038;-75
2021/07/24 08:01:23;;;;;;;11.85;4.30;;;;;;;;;;4998532;28;20042;-76
2021/07/24 08:03:49;;;;;;;13.77;5.18;;;;;;;;;;4978798;28;20038;-76
2021/07/24 08:06:15;;;;;;;10.18;4.20;;;;;;;;;;5002900;28;20041;-75
2021/07/24 08:08:41;;;;;;;9.60;4.88;;;;;;;;;;4999573;28;20033;-76
2021/07/24 08:11:06;;;;;;;10.70;5.15;;;;;;;;;;5000753;28;20030;-76
2021/07/24 08:13:32;;;;;;;10.57;4.63;;;;;;;;;;4997004;28;20259;-75
2021/07/24 08:15:57;;;;;;;9.88;4.65;;;;;;;;;;5002497;28;20502;-75
2021/07/24 08:18:24;;;;;;;10.85;4.82;;;;;;;;;;5000469;28;20069;-76
2021/07/24 08:20:50;;;;;;;10.18;4.40;;;;;;;;;;4998443;28;20485;-75
2021/07/24 08:23:15;;;;;;;8.95;4.35;;;;;;;;;;4978738;28;20053;-74
2021/07/24 08:25:42;;;;;;;11.30;4.32;;;;;;;;;;4989933;28;20071;-76
2021/07/24 08:28:08;;;;;;;12.48;4.55;;;;;;;;;;4986718;28;20048;-75
2021/07/24 08:30:34;;;;;;;15.45;4.65;;;;;;;;;;4995936;28;20204;-75
2021/07/24 08:33:00;;;;;;;9.55;3.78;;;;;;;;;;5001409;28;20022;-75
2021/07/24 08:35:26;;;;;;;7.82;4.05;;;;;;;;;;4996173;28;20049;-76
2021/07/24 08:37:51;;;;;;;9.50;4.05;;;;;;;;;;5001888;28;20041;-76
2021/07/24 08:40:17;;;;;;;8.98;3.80;;;;;;;;;;4997091;28;20042;-76
2021/07/24 08:42:43;;;;;;;14.13;4.13;;;;;;;;;;4999559;28;20041;-75
2021/07/24 08:45:10;;;;;;;10.60;3.65;;;;;;;;;;4996221;28;20060;-75
2021/07/24 08:47:36;;;;;;;7.97;4.20;;;;;;;;;;5001722;28;20051;-75
2021/07/24 08:50:04;;;;;;;9.27;3.80;;;;;;;;;;5000409;28;20031;-76
2021/07/24 08:52:31;;;;;;;11.70;4.35;;;;;;;;;;4999443;28;20029;-76
2021/07/24 08:54:59;;;;;;;9.25;4.15;;;;;;;;;;4997289;28;20033;-75
2021/07/24 08:57:27;;;;;;;16.17;5.22;;;;;;;;;;4998251;28;20034;-75
2021/07/24 08:59:55;;;;;;;12.38;5.18;;;;;;;;;;4979613;28;20038;-75
2021/07/24 09:02:27;;;;;;;12.02;5.10;;;;;;;;;;5001520;28;20029;-75
2021/07/24 09:04:55;;;;;;;9.98;4.57;;;;;;;;;;5002894;28;20026;-76
2021/07/24 09:07:27;;;;;;;8.98;5.07;;;;;;;;;;5007262;28;20033;-76
2021/07/24 09:09:55;;;;;;;9.32;5.10;;;;;;;;;;4994539;28;20022;-76
2021/07/24 09:12:22;;;;;;;11.75;5.80;;;;;;;;;;5001904;28;20038;-76
2021/07/24 09:14:47;;;;;;;11.80;5.63;;;;;;;;;;4983886;28;20034;-76
2021/07/24 09:17:18;;;;;;;19.83;6.57;;;;;;;;;;5004263;28;20025;-75
2021/07/24 09:19:44;;;;;;;10.07;5.30;;;;;;;;;;4998382;28;20541;-76
2021/07/24 09:22:35;;;;;;;17.98;5.80;;;;;;;;;;4994684;28;20085;-74
2021/07/24 09:25:16;;;;;;;7.85;4.60;;;;;;;;;;4994380;28;20461;-76
2021/07/24 09:27:48;;;;;;;11.97;4.13;;;;;;;;;;4995078;28;20019;-76
2021/07/24 09:30:28;;;;;;;7.10;4.10;;;;;;;;;;4992507;28;20188;-75
2021/07/24 09:33:02;;;;;;;8.15;4.00;;;;;;;;;;5013863;28;20030;-75
2021/07/24 09:35:52;;;;;;;8.88;4.65;;;;;;;;;;4994991;28;20061;-75
2021/07/24 09:38:32;;;;;;;9.40;4.72;;;;;;;;;;4995699;28;20116;-75
2021/07/24 09:41:01;;;;;;;10.63;4.93;;;;;;;;;;4996531;28;20037;-75
2021/07/24 09:43:32;;;;;;;6.15;4.00;;;;;;;;;;5001132;28;20037;-75
2021/07/24 09:46:10;;;;;;;10.18;4.70;;;;;;;;;;4996860;28;20061;-74
2021/07/24 09:48:36;;;;;;;15.82;5.18;;;;;;;;;;4999006;28;20022;-76
2021/07/24 09:51:01;;;;;;;11.10;5.63;;;;;;;;;;4996165;28;20077;-76
2021/07/24 09:53:36;;;;;;;13.43;5.18;;;;;;;;;;4984904;28;20050;-75
2021/07/24 09:56:03;;;;;;;10.77;5.05;;;;;;;;;;5005193;28;20026;-76
2021/07/24 09:58:28;;;;;;;10.52;5.25;;;;;;;;;;4979060;28;20034;-76
2021/07/24 10:01:02;;;;;;;11.57;5.22;;;;;;;;;;4999824;28;20564;-75
2021/07/24 10:03:28;;;;;;;12.07;6.05;;;;;;;;;;5000337;28;20081;-75
2021/07/24 10:05:55;;;;;;;13.00;6.10;;;;;;;;;;4998270;28;20026;-75
2021/07/24 10:08:22;;;;;;;12.60;6.40;;;;;;;;;;4995215;28;20138;-74
2021/07/24 10:10:49;;;;;;;16.42;5.65;;;;;;;;;;5000794;28;20041;-76
2021/07/24 10:13:15;;;;;;;14.95;5.85;;;;;;;;;;4995509;28;20054;-75
2021/07/24 10:15:43;;;;;;;13.15;5.90;;;;;;;;;;4992050;28;20021;-75
2021/07/24 10:18:10;;;;;;;9.07;5.43;;;;;;;;;;4997393;28;20485;-75
2021/07/24 10:20:44;;;;;;;9.27;5.78;;;;;;;;;;4997867;28;20080;-76
2021/07/24 10:23:11;;;;;;;13.80;6.20;;;;;;;;;;4999209;28;20104;-76
2021/07/24 10:26:06;;;;;;;11.63;6.63;;;;;;;;;;5002971;28;20026;-76
2021/07/24 10:28:42;;;;;;;13.35;6.78;;;;;;;;;;4998559;28;20552;-77
2021/07/24 10:31:14;;;;;;;13.18;7.28;;;;;;;;;;4996548;28;20037;-75
2021/07/24 10:33:41;;;;;;;12.93;7.43;;;;;;;;;;5001544;28;20077;-82
2021/07/24 10:36:33;;;;;;;11.93;7.50;;;;;;;;;;4992099;28;20067;-81
2021/07/24 10:39:16;;;;;;;12.27;7.82;;;;;;;;;;5005212;28;20053;-81
2021/07/24 10:41:49;;;;;;;19.25;8.77;;;;;;;;;;5001647;28;20389;-82
2021/07/24 10:44:24;;;;;;;15.60;8.30;;;;;;;;;;5001173;28;20371;-81
2021/07/24 10:46:49;;;;;;;13.10;7.13;;;;;;;;;;5004152;28;20592;-82
2021/07/24 10:49:20;;;;;;;13.52;7.85;;;;;;;;;;5002342;28;20109;-82
2021/07/24 10:51:56;;;;;;;16.80;7.43;;;;;;;;;;5000126;28;20029;-82
2021/07/24 10:54:23;;;;;;;11.20;7.20;;;;;;;;;;4998811;28;20041;-82
2021/07/24 10:56:49;;;;;;;15.80;6.88;;;;;;;;;;5004254;28;20039;-82
2021/07/24 10:59:17;;;;;;;12.13;7.35;;;;;;;;;;4999636;28;20052;-82
2021/07/24 11:01:55;;;;;;;12.55;7.07;;;;;;;;;;5006882;28;20012;-83
2021/07/24 11:04:38;;;;;;;14.35;7.60;;;;;;;;;;4999079;28;20024;-83
2021/07/24 11:07:16;;;;;;;13.57;8.50;;;;;;;;;;4999103;28;20041;-82
2021/07/24 11:09:44;;;;;;;12.68;8.07;;;;;;;;;;4997027;28;20065;-82
2021/07/24 11:12:13;;;;;;;14.88;7.97;;;;;;;;;;4996700;28;20486;-81
2021/07/24 11:14:41;;;;;;;14.82;8.52;;;;;;;;;;5005954;28;20038;-82
2021/07/24 11:17:11;;;;;;;16.00;7.70;;;;;;;;;;5006920;28;20037;-83
2021/07/24 11:19:49;;;;;;;13.20;7.90;;;;;;;;;;4992553;28;20022;-82
2021/07/24 11:22:14;;;;;;;18.83;8.70;;;;;;;;;;4996570;28;20032;-82
2021/07/24 11:24:52;;;;;;;16.13;9.30;;;;;;;;;;5000236;28;20105;-83
2021/07/24 11:27:27;;;;;;;14.90;8.90;;;;;;;;;;4988817;28;20105;-82
2021/07/24 11:30:05;;;;;;;18.73;8.73;;;;;;;;;;4988775;28;20055;-83
2021/07/24 11:32:40;;;;;;;16.25;8.75;;;;;;;;;;5002788;28;20025;-82
2021/07/24 11:35:09;;;;;;;15.25;8.77;;;;;;;;;;4989556;28;20069;-82
2021/07/24 11:37:38;;;;;;;22.27;9.18;;;;;;;;;;4991828;28;20397;-82
2021/07/24 11:40:06;;;;;;;15.13;8.25;;;;;;;;;;5003023;28;20032;-83
2021/07/24 11:42:32;;;;;;;13.82;8.35;;;;;;;;;;4992430;28;20034;-76
2021/07/24 11:44:57;;;;;;;12.80;8.95;;;;;;;;;;4991129;28;20041;-74
2021/07/24 11:47:23;;;;;;;16.10;8.43;;;;;;;;;;4982861;28;20448;-75
2021/07/24 11:49:48;;;;;;;16.35;7.88;;;;;;;;;;4994200;28;20039;-76
2021/07/24 11:52:14;;;;;;;11.82;8.35;;;;;;;;;;4990223;28;20030;-76
2021/07/24 11:54:39;;;;;;;19.80;8.23;;;;;;;;;;5007371;28;20030;-75
2021/07/24 11:57:05;;;;;;;11.63;8.48;;;;;;;;;;4985370;28;20037;-76
2021/07/24 11:59:34;;;;;;;18.05;8.85;;;;;;;;;;5006130;28;20034;-76
2021/07/24 12:02:01;;;;;;;15.30;9.05;;;;;;;;;;5005994;28;20046;-76
2021/07/24 12:04:27;;;;;;;14.63;9.35;;;;;;;;;;4998606;28;20493;-76
2021/07/24 12:07:00;;;;;;;19.05;10.32;;;;;;;;;;5005042;28;20049;-76
2021/07/24 12:09:26;;;;;;;15.82;9.18;;;;;;;;;;5001169;28;20405;-75
2021/07/24 12:12:00;;;;;;;14.30;8.20;;;;;;;;;;4994629;28;20109;-76
2021/07/24 12:14:27;;;;;;;12.35;8.52;;;;;;;;;;4973800;28;20053;-75
2021/07/24 12:17:12;;;;;;;17.23;9.05;;;;;;;;;;5001372;28;20053;-76
2021/07/24 12:19:42;;;;;;;13.45;8.30;;;;;;;;;;4981444;28;20441;-76
2021/07/24 12:22:20;;;;;;;16.17;9.13;;;;;;;;;;4993441;28;20038;-75
2021/07/24 12:24:47;;;;;;;13.00;8.35;;;;;;;;;;4987007;28;20023;-76
2021/07/24 12:27:15;;;;;;;17.13;9.13;;;;;;;;;;5005654;28;20547;-75
2021/07/24 12:30:06;;;;;;;14.98;8.68;;;;;;;;;;4985107;28;20113;-74
2021/07/24 12:32:39;;;;;;;17.33;9.35;;;;;;;;;;4995067;28;20052;-76
2021/07/24 12:35:18;;;;;;;17.42;9.25;;;;;;;;;;4992847;28;20513;-75
2021/07/24 12:37:44;;;;;;;16.20;10.18;;;;;;;;;;4964381;28;20082;-76
2021/07/24 12:40:14;;;;;;;15.52;9.35;;;;;;;;;;4975156;28;20034;-76
2021/07/24 12:42:39;;;;;;;15.48;9.20;;;;;;;;;;4994937;28;20641;-75
2021/07/24 12:45:06;;;;;;;18.05;9.18;;;;;;;;;;4977981;28;20235;-75
2021/07/24 12:47:35;;;;;;;14.40;9.43;;;;;;;;;;4985735;28;20205;-75
2021/07/24 12:50:14;;;;;;;12.95;8.75;;;;;;;;;;4993289;28;20027;-76
2021/07/24 12:52:44;;;;;;;17.42;7.82;;;;;;;;;;4993411;28;20054;-75
2021/07/24 12:55:15;;;;;;;9.18;6.85;;;;;;;;;;4997775;28;20029;-75
2021/07/24 12:57:41;;;;;;;15.38;6.80;;;;;;;;;;4989725;28;20492;-76
2021/07/24 13:00:09;;;;;;;10.82;6.90;;;;;;;;;;4992520;28;20084;-76
2021/07/24 13:02:35;;;;;;;12.38;7.85;;;;;;;;;;4997334;28;20496;-76
2021/07/24 13:05:01;;;;;;;11.88;7.20;;;;;;;;;;4994099;28;20026;-76
2021/07/24 13:07:26;;;;;;;13.10;7.60;;;;;;;;;;4999695;28;20076;-74
2021/07/24 13:09:56;;;;;;;11.60;7.50;;;;;;;;;;4989504;28;20034;-76
2021/07/24 13:12:22;;;;;;;12.23;9.13;;;;;;;;;;4991288;28;20087;-76
2021/07/24 13:14:48;;;;;;;12.57;8.50;;;;;;;;;;4989695;28;20528;-75
2021/07/24 13:17:15;;;;;;;14.50;8.48;;;;;;;;;;5001047;28;20022;-75
2021/07/24 13:19:40;;;;;;;14.13;8.63;;;;;;;;;;4997406;28;20022;-76
2021/07/24 13:22:06;;;;;;;16.23;8.45;;;;;;;;;;5000543;28;20053;-76
2021/07/24 13:24:32;;;;;;;13.55;9.40;;;;;;;;;;4986769;28;20159;-74
2021/07/24 13:29:42;;;;;;;12.75;8.60;;;;;;;;;;4994212;28;20034;-75
2021/07/24 13:32:08;;;;;;;13.88;9.43;;;;;;;;;;4999379;28;20030;-75
2021/07/24 13:34:36;;;;;;;12.77;8.57;;;;;;;;;;4988764;28;20083;-76
2021/07/24 13:37:02;;;;;;;16.55;9.00;;;;;;;;;;5008253;28;20112;-76
2021/07/24 13:39:28;;;;;;;12.60;8.68;;;;;;;;;;5005907;28;20619;-75
2021/07/24 13:41:53;;;;;;;11.63;7.63;;;;;;;;;;4986130;28;20506;-74
2021/07/24 13:44:19;;;;;;;17.88;9.10;;;;;;;;;;5001691;28;20076;-75
2021/07/24 13:46:44;;;;;;;14.55;8.05;;;;;;;;;;5008305;28;20014;-75
2021/07/24 13:49:10;;;;;;;14.57;8.35;;;;;;;;;;5000223;28;20154;-75
2021/07/24 13:51:35;;;;;;;11.93;7.43;;;;;;;;;;4987388;28;20107;-75
2021/07/24 13:54:01;;;;;;;12.35;7.55;;;;;;;;;;5007920;28;20049;-74
2021/07/24 13:56:26;;;;;;;10.07;6.35;;;;;;;;;;4974615;28;20490;-74
2021/07/24 13:58:52;;;;;;;14.27;6.68;;;;;;;;;;4998048;28;20096;-75
2021/07/24 14:01:18;;;;;;;10.18;6.22;;;;;;;;;;4995239;28;20105;-76
2021/07/24 14:03:43;;;;;;;12.32;6.15;;;;;;;;;;5002835;28;20196;-75
2021/07/24 14:06:09;;;;;;;16.67;6.40;;;;;;;;;;4973624;28;20106;-77
2021/07/24 14:08:35;;;;;;;21.55;5.85;;;;;;;;;;5002758;28;20050;-75
2021/07/24 14:11:11;;;;;;;15.00;6.28;;;;;;;;;;4994520;28;20523;-76
2021/07/24 14:13:36;;;;;;;12.27;6.20;;;;;;;;;;4998199;28;20091;-80
2021/07/24 14:16:02;;;;;;;13.13;6.05;;;;;;;;;;4975010;28;20049;-83
2021/07/24 14:18:27;;;;;;;18.35;5.88;;;;;;;;;;4991790;28;20173;-83
2021/07/24 14:20:53;;;;;;;9.43;6.03;;;;;;;;;;4967628;28;20034;-83
2021/07/24 14:23:18;;;;;;;11.57;5.47;;;;;;;;;;4995548;28;20038;-84
2021/07/24 14:25:44;;;;;;;10.68;5.78;;;;;;;;;;4967940;28;20034;-82
2021/07/24 14:28:09;;;;;;;7.60;5.55;;;;;;;;;;4992578;28;20026;-83
2021/07/24 14:30:35;;;;;;;9.85;5.68;;;;;;;;;;5000862;28;20678;-83
2021/07/24 14:33:00;;;;;;;12.40;5.07;;;;;;;;;;4999237;28;20034;-82